createdAt,value
2023-04-15T00:01:49.201Z,11.30
2023-04-15T00:04:34.783Z,11.30
2023-04-15T00:07:20.351Z,11.20
2023-04-15T00:10:06.323Z,11.30
2023-04-15T00:12:52.512Z,11.30
2023-04-15T00:15:38.074Z,11.30
2023-04-15T00:18:24.201Z,11.30
2023-04-15T00:21:10.099Z,11.30
2023-04-15T00:23:55.539Z,11.30
2023-04-15T00:26:41.367Z,11.30
2023-04-15T00:29:27.121Z,11.30
2023-04-15T00:32:12.455Z,10.80
2023-04-15T00:34:59.747Z,10.70
2023-04-15T00:37:46.347Z,10.90
2023-04-15T00:40:31.871Z,10.70
2023-04-15T00:43:17.640Z,10.90
2023-04-15T00:46:04.888Z,11.00
2023-04-15T00:48:51.302Z,11.00
2023-04-15T00:51:37.251Z,10.90
2023-04-15T00:54:22.581Z,10.90
2023-04-15T00:57:08.891Z,11.00
2023-04-15T00:59:55.953Z,11.00
2023-04-15T01:02:41.534Z,10.90
2023-04-15T01:05:27.119Z,10.90
2023-04-15T01:08:12.556Z,10.80
2023-04-15T01:10:58.692Z,10.80
2023-04-15T01:13:44.621Z,10.80
2023-04-15T01:16:30.074Z,10.80
2023-04-15T01:19:16.639Z,10.80
2023-04-15T01:22:02.923Z,10.70
2023-04-15T01:24:59.272Z,10.70
2023-04-15T01:27:45.367Z,10.60
2023-04-15T01:30:34.089Z,10.50
2023-04-15T01:33:19.805Z,10.50
2023-04-15T01:36:06.322Z,10.60
2023-04-15T01:38:52.032Z,10.50
2023-04-15T01:41:42.357Z,10.60
2023-04-15T01:44:27.694Z,10.50
2023-04-15T01:47:13.533Z,10.50
2023-04-15T01:50:00.488Z,10.40
2023-04-15T01:52:48.396Z,10.50
2023-04-15T01:55:33.892Z,10.50
2023-04-15T01:58:19.456Z,10.40
2023-04-15T02:01:04.829Z,10.30
2023-04-15T02:03:50.728Z,10.40
2023-04-15T02:06:36.429Z,10.40
2023-04-15T02:09:21.775Z,10.40
2023-04-15T02:12:07.327Z,10.30
2023-04-15T02:14:53.473Z,10.30
2023-04-15T02:17:39.246Z,10.20
2023-04-15T02:20:26.490Z,9.90
2023-04-15T02:23:11.811Z,9.90
2023-04-15T02:25:57.556Z,9.80
2023-04-15T02:28:43.254Z,9.90
2023-04-15T02:31:29.013Z,9.90
2023-04-15T02:34:14.887Z,10.10
2023-04-15T02:37:03.929Z,10.10
2023-04-15T02:39:50.113Z,10.10
2023-04-15T02:42:35.536Z,10.00
2023-04-15T02:45:24.195Z,10.00
2023-04-15T02:48:09.574Z,9.90
2023-04-15T02:51:10.687Z,10.00
2023-04-15T02:53:56.667Z,9.80
2023-04-15T02:56:42.099Z,9.80
2023-04-15T02:59:27.818Z,10.00
2023-04-15T03:02:13.476Z,10.00
2023-04-15T03:04:59.082Z,10.00
2023-04-15T03:07:44.641Z,10.00
2023-04-15T03:10:30.773Z,10.00
2023-04-15T03:13:16.613Z,10.10
2023-04-15T03:16:03.047Z,10.10
2023-04-15T03:18:49.640Z,10.10
2023-04-15T03:21:35.890Z,10.00
2023-04-15T03:24:21.780Z,10.00
2023-04-15T03:27:08.047Z,10.10
2023-04-15T03:29:54.476Z,10.10
2023-04-15T03:32:41.144Z,9.90
2023-04-15T03:35:27.312Z,10.10
2023-04-15T03:38:12.913Z,10.00
2023-04-15T03:40:58.569Z,10.20
2023-04-15T03:43:44.265Z,10.00
2023-04-15T03:46:29.710Z,9.90
2023-04-15T03:49:15.405Z,9.90
2023-04-15T03:52:01.393Z,9.80
2023-04-15T03:54:47.776Z,9.90
2023-04-15T03:57:37.968Z,9.80
2023-04-15T04:00:23.542Z,9.90
2023-04-15T04:03:09.228Z,9.80
2023-04-15T04:05:55.369Z,9.80
2023-04-15T04:08:40.979Z,9.90
2023-04-15T04:11:26.476Z,9.90
2023-04-15T04:14:11.890Z,9.90
2023-04-15T04:16:57.600Z,9.90
2023-04-15T04:19:43.160Z,9.90
2023-04-15T04:22:28.642Z,9.80
2023-04-15T04:25:14.566Z,9.90
2023-04-15T04:28:00.145Z,9.90
2023-04-15T04:30:45.685Z,9.80
2023-04-15T04:33:31.195Z,9.70
2023-04-15T04:36:17.081Z,9.70
2023-04-15T04:39:02.842Z,9.80
2023-04-15T04:41:48.770Z,9.70
2023-04-15T04:44:34.353Z,9.80
2023-04-15T04:47:20.108Z,9.80
2023-04-15T04:50:06.821Z,9.70
2023-04-15T04:52:52.176Z,9.60
2023-04-15T04:55:37.932Z,9.60
2023-04-15T04:58:23.365Z,9.40
2023-04-15T05:01:09.160Z,9.50
2023-04-15T05:03:54.630Z,9.50
2023-04-15T05:06:39.926Z,9.60
2023-04-15T05:09:25.640Z,9.50
2023-04-15T05:12:15.032Z,9.50
2023-04-15T05:15:01.029Z,9.50
2023-04-15T05:17:46.716Z,9.40
2023-04-15T05:20:31.919Z,9.40
2023-04-15T05:23:17.785Z,9.50
2023-04-15T05:26:03.415Z,9.50
2023-04-15T05:28:49.711Z,9.50
2023-04-15T05:31:35.292Z,9.50
2023-04-15T05:34:20.761Z,9.50
2023-04-15T05:37:06.584Z,9.60
2023-04-15T05:39:52.223Z,9.70
2023-04-15T05:42:37.826Z,9.50
2023-04-15T05:45:23.588Z,9.60
2023-04-15T05:48:09.172Z,9.50
2023-04-15T05:50:54.624Z,9.50
2023-04-15T05:53:41.785Z,9.50
2023-04-15T05:56:27.383Z,9.60
2023-04-15T05:59:13.205Z,9.60
2023-04-15T06:01:58.553Z,9.60
2023-04-15T06:04:44.237Z,9.80
2023-04-15T06:07:29.969Z,9.60
2023-04-15T06:10:15.674Z,9.40
2023-04-15T06:13:01.351Z,9.60
2023-04-15T06:15:47.451Z,5.60
2023-04-15T06:18:33.015Z,9.60
2023-04-15T06:21:19.064Z,9.80
2023-04-15T06:24:04.387Z,9.90
2023-04-15T06:26:50.064Z,9.70
2023-04-15T06:29:35.661Z,9.70
2023-04-15T06:32:21.312Z,9.80
2023-04-15T06:35:07.029Z,9.80
2023-04-15T06:37:52.652Z,9.80
2023-04-15T06:40:38.118Z,9.90
2023-04-15T06:43:24.223Z,10.00
2023-04-15T06:46:09.619Z,10.20
2023-04-15T06:48:55.330Z,10.20
2023-04-15T06:51:40.876Z,10.20
2023-04-15T06:54:26.605Z,10.30
2023-04-15T06:57:12.028Z,10.40
2023-04-15T06:59:57.536Z,10.40
2023-04-15T07:02:43.398Z,10.40
2023-04-15T07:05:29.188Z,10.40
2023-04-15T07:08:14.786Z,10.50
2023-04-15T07:11:00.877Z,10.50
2023-04-15T07:13:46.552Z,10.40
2023-04-15T07:16:32.254Z,10.30
2023-04-15T07:19:17.778Z,10.90
2023-04-15T07:22:03.908Z,11.50
2023-04-15T07:24:49.545Z,12.00
2023-04-15T07:27:35.365Z,12.40
2023-04-15T07:30:20.909Z,12.70
2023-04-15T07:33:07.012Z,12.90
2023-04-15T07:35:52.664Z,13.20
2023-04-15T07:38:38.345Z,13.30
2023-04-15T07:41:24.055Z,13.50
2023-04-15T07:44:09.459Z,13.50
2023-04-15T07:46:55.497Z,13.60
2023-04-15T07:49:41.825Z,13.70
2023-04-15T07:52:27.247Z,13.70
2023-04-15T07:55:12.857Z,13.80
2023-04-15T07:57:58.385Z,13.80
2023-04-15T08:00:44.116Z,13.90
2023-04-15T08:03:31.086Z,13.90
2023-04-15T08:06:17.113Z,14.00
2023-04-15T08:09:02.622Z,14.00
2023-04-15T08:11:51.676Z,14.10
2023-04-15T08:14:37.412Z,14.10
2023-04-15T08:17:23.175Z,14.10
2023-04-15T08:20:08.634Z,14.10
2023-04-15T08:22:54.114Z,14.10
2023-04-15T08:25:39.569Z,14.10
2023-04-15T08:28:25.184Z,14.10
2023-04-15T08:31:10.833Z,14.10
2023-04-15T08:33:57.710Z,14.10
2023-04-15T08:36:43.205Z,14.10
2023-04-15T08:39:28.915Z,14.20
2023-04-15T08:42:19.412Z,14.20
2023-04-15T08:45:05.517Z,14.20
2023-04-15T08:47:54.197Z,14.20
2023-04-15T08:50:39.881Z,14.20
2023-04-15T08:53:25.767Z,14.20
2023-04-15T08:56:12.527Z,14.20
2023-04-15T08:58:57.930Z,14.20
2023-04-15T09:01:43.690Z,14.20
2023-04-15T09:04:29.797Z,14.20
2023-04-15T09:07:15.497Z,14.30
2023-04-15T09:10:01.717Z,14.20
2023-04-15T09:12:47.218Z,14.30
2023-04-15T09:15:33.121Z,14.30
2023-04-15T09:18:29.652Z,14.30
2023-04-15T09:21:16.356Z,14.30
2023-04-15T09:24:02.628Z,14.30
2023-04-15T09:26:47.982Z,14.30
2023-04-15T09:29:33.576Z,14.30
2023-04-15T09:32:21.234Z,14.40
2023-04-15T09:35:11.151Z,14.40
2023-04-15T09:38:03.840Z,14.40
2023-04-15T09:40:49.568Z,14.50
2023-04-15T09:43:39.763Z,14.50
2023-04-15T09:46:42.257Z,14.50
2023-04-15T09:49:28.340Z,14.40
2023-04-15T09:52:14.041Z,14.50
2023-04-15T09:55:00.058Z,14.50
2023-04-15T09:57:47.092Z,14.60
2023-04-15T10:00:32.882Z,14.60
2023-04-15T10:03:20.091Z,14.60
2023-04-15T10:06:05.929Z,14.60
2023-04-15T10:08:51.393Z,14.60
2023-04-15T10:11:36.845Z,14.70
2023-04-15T10:14:23.792Z,14.70
2023-04-15T10:17:11.192Z,14.70
2023-04-15T10:19:56.920Z,14.70
2023-04-15T10:22:42.408Z,14.70
2023-04-15T10:25:28.570Z,14.70
2023-04-15T10:28:14.627Z,14.70
2023-04-15T10:31:00.580Z,14.70
2023-04-15T10:33:47.598Z,14.80
2023-04-15T10:36:33.982Z,14.80
2023-04-15T10:39:35.028Z,14.80
2023-04-15T10:42:20.683Z,14.80
2023-04-15T10:45:15.994Z,14.90
2023-04-15T10:48:03.630Z,14.90
2023-04-15T10:50:56.841Z,14.90
2023-04-15T10:53:42.815Z,14.90
2023-04-15T10:56:28.874Z,14.90
2023-04-15T10:59:16.398Z,14.90
2023-04-15T11:02:03.732Z,14.90
2023-04-15T11:04:52.980Z,14.90
2023-04-15T11:07:42.069Z,14.90
2023-04-15T11:10:31.018Z,14.90
2023-04-15T11:13:17.861Z,15.00
2023-04-15T11:16:03.632Z,14.90
2023-04-15T11:18:55.899Z,15.00
2023-04-15T11:21:41.417Z,15.00
2023-04-15T11:24:27.241Z,15.00
2023-04-15T11:27:21.015Z,15.00
2023-04-15T11:30:21.653Z,15.00
2023-04-15T11:33:12.228Z,15.00
2023-04-15T11:35:57.774Z,15.00
2023-04-15T11:38:44.912Z,15.00
2023-04-15T11:41:30.617Z,15.00
2023-04-15T11:44:16.599Z,15.00
2023-04-15T11:47:02.067Z,15.00
2023-04-15T11:49:47.629Z,15.10
2023-04-15T11:52:33.247Z,15.10
2023-04-15T11:55:18.825Z,15.10
2023-04-15T11:58:16.638Z,15.10
2023-04-15T12:01:02.929Z,15.10
2023-04-15T12:04:01.088Z,15.10
2023-04-15T12:06:46.879Z,15.10
2023-04-15T12:09:37.537Z,15.10
2023-04-15T12:12:27.229Z,15.10
2023-04-15T12:15:13.048Z,15.10
2023-04-15T12:17:58.927Z,15.10
2023-04-15T12:20:45.456Z,15.10
2023-04-15T12:23:31.407Z,15.10
2023-04-15T12:26:17.955Z,15.10
2023-04-15T12:29:10.382Z,15.10
2023-04-15T12:31:57.303Z,15.10
2023-04-15T12:34:52.846Z,15.10
2023-04-15T12:37:38.205Z,15.20
2023-04-15T12:40:23.837Z,15.10
2023-04-15T12:43:09.489Z,15.20
2023-04-15T12:45:55.346Z,15.20
2023-04-15T12:48:40.738Z,15.20
2023-04-15T12:51:27.414Z,15.20
2023-04-15T12:54:12.934Z,15.20
2023-04-15T12:56:59.160Z,15.20
2023-04-15T12:59:44.705Z,15.20
2023-04-15T13:02:30.629Z,15.20
2023-04-15T13:05:16.300Z,15.20
2023-04-15T13:08:02.449Z,15.20
2023-04-15T13:10:48.213Z,15.20
2023-04-15T13:13:34.041Z,15.20
2023-04-15T13:16:19.994Z,15.20
2023-04-15T13:19:05.802Z,15.20
2023-04-15T13:21:51.560Z,15.20
2023-04-15T13:24:37.785Z,15.20
2023-04-15T13:27:24.037Z,15.40
2023-04-15T13:30:10.232Z,12.20
2023-04-15T13:32:56.070Z,15.20
2023-04-15T13:35:41.935Z,15.30
2023-04-15T13:38:27.512Z,15.20
2023-04-15T13:41:13.380Z,15.20
2023-04-15T13:43:59.176Z,15.20
2023-04-15T13:46:44.980Z,13.90
2023-04-15T13:49:30.541Z,15.20
2023-04-15T13:52:16.055Z,15.30
2023-04-15T13:55:08.179Z,15.30
2023-04-15T13:58:05.567Z,15.30
2023-04-15T14:00:51.085Z,15.30
2023-04-15T14:03:36.903Z,15.30
2023-04-15T14:06:22.927Z,15.30
2023-04-15T14:09:08.323Z,15.30
2023-04-15T14:11:53.759Z,15.30
2023-04-15T14:14:39.560Z,15.30
2023-04-15T14:17:25.207Z,15.30
2023-04-15T14:20:10.945Z,15.30
2023-04-15T14:22:56.323Z,15.30
2023-04-15T14:25:42.035Z,15.30
2023-04-15T14:28:27.659Z,15.30
2023-04-15T14:31:14.258Z,15.30
2023-04-15T14:33:59.908Z,15.30
2023-04-15T14:36:45.563Z,15.30
2023-04-15T14:39:31.261Z,15.40
2023-04-15T14:42:16.581Z,15.40
2023-04-15T14:45:02.262Z,15.40
2023-04-15T14:47:48.682Z,15.50
2023-04-15T14:50:34.369Z,15.50
2023-04-15T14:53:20.292Z,15.70
2023-04-15T14:56:05.897Z,15.80
2023-04-15T14:58:53.213Z,15.80
2023-04-15T15:01:38.931Z,15.90
2023-04-15T15:04:25.542Z,16.00
2023-04-15T15:07:10.959Z,16.10
2023-04-15T15:09:56.709Z,16.20
2023-04-15T15:12:42.062Z,16.30
2023-04-15T15:15:29.156Z,16.40
2023-04-15T15:18:16.712Z,16.50
2023-04-15T15:21:02.212Z,16.50
2023-04-15T15:23:48.560Z,16.60
2023-04-15T15:26:33.959Z,16.60
2023-04-15T15:29:19.775Z,16.60
2023-04-15T15:32:05.563Z,16.70
2023-04-15T15:34:50.973Z,16.70
2023-04-15T15:37:36.847Z,16.70
2023-04-15T15:40:22.340Z,16.70
2023-04-15T15:43:07.640Z,16.70
2023-04-15T15:45:55.481Z,16.70
2023-04-15T15:48:40.874Z,16.70
2023-04-15T15:51:27.517Z,16.70
2023-04-15T15:54:13.044Z,16.70
2023-04-15T15:56:58.396Z,16.70
2023-04-15T15:59:44.016Z,16.70
2023-04-15T16:02:52.394Z,16.70
2023-04-15T16:05:37.047Z,16.70
2023-04-15T16:08:22.515Z,16.70
2023-04-15T16:11:08.206Z,16.70
2023-04-15T16:13:54.060Z,16.70
2023-04-15T16:16:39.772Z,16.70
2023-04-15T16:19:25.054Z,16.70
2023-04-15T16:22:10.833Z,16.70
2023-04-15T16:24:56.199Z,16.70
2023-04-15T16:27:57.206Z,16.70
2023-04-15T16:30:44.585Z,16.70
2023-04-15T16:33:29.971Z,16.70
2023-04-15T16:36:15.546Z,16.70
2023-04-15T16:39:01.293Z,16.70
2023-04-15T16:41:46.614Z,16.70
2023-04-15T16:44:32.636Z,16.70
2023-04-15T16:47:18.135Z,16.60
2023-04-15T16:50:04.116Z,16.70
2023-04-15T16:52:49.774Z,16.60
2023-04-15T16:55:35.352Z,16.60
2023-04-15T16:58:20.976Z,16.60
2023-04-15T17:01:06.760Z,16.60
2023-04-15T17:03:54.708Z,16.60
2023-04-15T17:06:41.579Z,16.60
2023-04-15T17:09:27.077Z,16.60
2023-04-15T17:12:12.757Z,16.50
2023-04-15T17:14:58.359Z,16.60
2023-04-15T17:17:44.298Z,16.50
2023-04-15T17:20:29.936Z,16.50
2023-04-15T17:23:15.639Z,16.50
2023-04-15T17:26:01.760Z,16.50
2023-04-15T17:28:47.235Z,16.50
2023-04-15T17:31:33.058Z,16.50
2023-04-15T17:34:18.737Z,16.60
2023-04-15T17:37:04.322Z,16.50
2023-04-15T17:39:49.818Z,16.50
2023-04-15T17:42:35.637Z,16.60
2023-04-15T17:45:21.257Z,16.60
2023-04-15T17:48:06.809Z,16.60
2023-04-15T17:50:52.584Z,16.60
2023-04-15T17:53:38.376Z,16.60
2023-04-15T17:56:23.818Z,16.60
2023-04-15T17:59:09.888Z,16.50
2023-04-15T18:01:55.875Z,16.90
2023-04-15T18:04:41.817Z,16.60
2023-04-15T18:07:27.132Z,16.60
2023-04-15T18:10:12.946Z,16.60
2023-04-15T18:12:58.346Z,16.50
2023-04-15T18:15:45.616Z,16.60
2023-04-15T18:18:32.416Z,16.60
2023-04-15T18:21:17.934Z,16.50
2023-04-15T18:24:03.455Z,16.50
2023-04-15T18:26:49.494Z,16.60
2023-04-15T18:29:35.086Z,16.50
2023-04-15T18:32:20.932Z,16.50
2023-04-15T18:35:06.812Z,16.50
2023-04-15T18:37:52.510Z,16.50
2023-04-15T18:40:37.874Z,16.60
2023-04-15T18:43:23.626Z,16.50
2023-04-15T18:46:12.283Z,16.50
2023-04-15T18:48:57.892Z,16.50
2023-04-15T18:51:43.582Z,16.50
2023-04-15T18:54:29.237Z,16.50
2023-04-15T18:57:16.658Z,16.40
2023-04-15T19:00:10.128Z,16.40
2023-04-15T19:02:55.943Z,16.50
2023-04-15T19:05:41.309Z,16.50
2023-04-15T19:08:27.027Z,16.50
2023-04-15T19:11:12.504Z,16.50
2023-04-15T19:13:58.142Z,16.40
2023-04-15T19:16:43.839Z,16.50
2023-04-15T19:19:29.976Z,16.50
2023-04-15T19:22:16.574Z,16.50
2023-04-15T19:25:02.486Z,16.40
2023-04-15T19:27:48.290Z,16.40
2023-04-15T19:30:34.533Z,16.40
2023-04-15T19:33:20.049Z,16.40
2023-04-15T19:36:06.696Z,16.40
2023-04-15T19:38:52.269Z,16.40
2023-04-15T19:41:39.325Z,16.50
2023-04-15T19:44:25.117Z,16.50
2023-04-15T19:47:10.927Z,16.50
2023-04-15T19:49:57.849Z,16.50
2023-04-15T19:52:43.701Z,16.50
2023-04-15T19:55:29.223Z,16.50
2023-04-15T19:58:15.528Z,16.50
2023-04-15T20:01:01.442Z,16.40
2023-04-15T20:03:47.472Z,16.40
2023-04-15T20:06:33.402Z,16.40
2023-04-15T20:09:18.725Z,16.40
2023-04-15T20:12:10.041Z,16.30
2023-04-15T20:15:10.097Z,16.40
2023-04-15T20:17:55.703Z,16.40
2023-04-15T20:20:41.277Z,16.40
2023-04-15T20:23:26.935Z,16.30
2023-04-15T20:26:12.657Z,16.30
2023-04-15T20:28:58.895Z,15.60
2023-04-15T20:31:44.507Z,15.00
2023-04-15T20:34:30.082Z,14.60
2023-04-15T20:37:16.095Z,14.40
2023-04-15T20:40:01.735Z,14.10
2023-04-15T20:42:47.520Z,13.90
2023-04-15T20:45:33.236Z,13.70
2023-04-15T20:48:19.319Z,13.60
2023-04-15T20:51:04.998Z,13.50
2023-04-15T20:53:50.278Z,13.50
2023-04-15T20:56:36.344Z,13.30
2023-04-15T20:59:21.961Z,13.30
2023-04-15T21:02:07.642Z,13.20
2023-04-15T21:04:53.156Z,13.20
2023-04-15T21:07:38.768Z,13.20
2023-04-15T21:10:25.274Z,13.20
2023-04-15T21:13:13.085Z,13.20
2023-04-15T21:15:58.389Z,13.10
2023-04-15T21:18:43.903Z,13.00
2023-04-15T21:21:29.672Z,13.00
2023-04-15T21:24:15.308Z,12.90
2023-04-15T21:27:02.029Z,12.80
2023-04-15T21:29:49.442Z,12.70
2023-04-15T21:32:34.883Z,12.80
2023-04-15T21:35:20.613Z,12.90
2023-04-15T21:49:11.165Z,12.70
2023-04-15T21:52:01.133Z,12.70
2023-04-15T22:00:20.242Z,12.80
2023-04-15T22:03:06.241Z,12.70
2023-04-15T22:05:51.642Z,12.70
2023-04-15T22:08:48.345Z,12.70
2023-04-15T22:11:38.592Z,12.70
2023-04-15T22:14:24.350Z,12.70
2023-04-15T22:17:09.910Z,12.60
2023-04-15T22:19:55.560Z,12.60
2023-04-15T22:25:29.612Z,12.70
2023-04-15T22:36:34.000Z,12.60
2023-04-15T22:39:20.062Z,12.60
2023-04-15T22:50:23.639Z,12.70
2023-04-15T22:53:09.372Z,12.80
2023-04-15T22:55:55.331Z,12.70
2023-04-15T22:58:41.059Z,12.70
2023-04-15T23:04:25.092Z,12.60
2023-04-15T23:10:01.082Z,12.60
2023-04-15T23:29:23.108Z,12.50
2023-04-15T23:54:19.135Z,12.40
2023-04-15T23:57:04.824Z,12.30
